createdAt,value
2023-05-19T00:00:08.315Z,8.70
2023-05-19T00:03:54.801Z,10.37
2023-05-19T00:07:39.135Z,7.03
2023-05-19T00:11:22.990Z,6.82
2023-05-19T00:15:05.855Z,5.38
2023-05-19T00:18:48.360Z,7.68
2023-05-19T00:22:30.467Z,8.38
2023-05-19T00:26:12.829Z,8.00
2023-05-19T00:29:55.278Z,7.23
2023-05-19T00:33:37.184Z,8.77
2023-05-19T00:37:19.179Z,8.70
2023-05-19T00:41:02.164Z,9.60
2023-05-19T00:44:44.227Z,8.73
2023-05-19T00:48:26.725Z,8.18
2023-05-19T00:52:08.734Z,7.65
2023-05-19T00:55:51.002Z,7.10
2023-05-19T00:59:33.093Z,8.95
2023-05-19T01:03:15.271Z,7.88
2023-05-19T01:06:57.625Z,8.63
2023-05-19T01:10:39.867Z,7.57
2023-05-19T01:14:22.135Z,7.78
2023-05-19T01:18:19.632Z,7.43
2023-05-19T01:22:14.765Z,5.70
2023-05-19T01:26:31.645Z,8.23
2023-05-19T01:30:27.960Z,10.02
2023-05-19T01:34:12.266Z,7.70
2023-05-19T01:38:01.542Z,7.45
2023-05-19T01:41:45.850Z,8.23
2023-05-19T01:45:33.094Z,10.43
2023-05-19T01:49:15.451Z,11.48
2023-05-19T01:52:57.471Z,7.85
2023-05-19T01:56:58.017Z,8.23
2023-05-19T02:00:53.387Z,6.85
2023-05-19T02:04:47.274Z,7.72
2023-05-19T02:08:41.800Z,11.40
2023-05-19T02:12:29.264Z,5.30
2023-05-19T02:16:13.708Z,8.10
2023-05-19T02:19:56.846Z,8.30
2023-05-19T02:23:39.907Z,9.70
2023-05-19T02:27:21.916Z,8.32
2023-05-19T02:31:05.903Z,7.88
2023-05-19T02:34:48.078Z,6.60
2023-05-19T02:38:30.030Z,9.55
2023-05-19T02:42:12.540Z,7.40
2023-05-19T02:45:54.529Z,9.73
2023-05-19T02:49:36.440Z,7.40
2023-05-19T02:53:18.541Z,7.53
2023-05-19T02:57:01.551Z,9.23
2023-05-19T03:00:45.321Z,8.10
2023-05-19T03:04:28.120Z,7.93
2023-05-19T03:08:10.575Z,5.95
2023-05-19T03:11:52.528Z,7.97
2023-05-19T03:15:34.522Z,7.28
2023-05-19T03:19:16.602Z,9.63
2023-05-19T03:22:58.830Z,8.60
2023-05-19T03:26:41.103Z,11.75
2023-05-19T03:30:23.037Z,8.30
2023-05-19T03:34:04.987Z,7.07
2023-05-19T03:37:47.225Z,7.97
2023-05-19T03:41:29.165Z,7.95
2023-05-19T03:45:11.368Z,10.38
2023-05-19T03:48:53.559Z,7.60
2023-05-19T03:52:36.335Z,7.35
2023-05-19T03:56:18.478Z,10.40
2023-05-19T04:00:00.468Z,11.60
2023-05-19T04:03:42.483Z,7.07
2023-05-19T04:07:24.514Z,8.07
2023-05-19T04:11:06.491Z,8.18
2023-05-19T04:14:48.531Z,7.20
2023-05-19T04:18:30.715Z,10.32
2023-05-19T04:22:12.670Z,9.23
2023-05-19T04:25:55.225Z,13.13
2023-05-19T04:33:37.838Z,8.80
2023-05-19T04:37:20.241Z,8.27
2023-05-19T04:41:10.723Z,12.25
2023-05-19T04:44:53.119Z,9.88
2023-05-19T04:48:35.261Z,9.65
2023-05-19T04:53:03.947Z,10.33
2023-05-19T04:57:10.670Z,9.45
2023-05-19T05:00:55.912Z,10.38
2023-05-19T05:05:24.584Z,10.37
2023-05-19T05:09:35.879Z,11.32
2023-05-19T05:13:19.408Z,9.00
2023-05-19T05:17:31.023Z,12.48
2023-05-19T05:21:13.342Z,9.95
2023-05-19T05:25:24.098Z,9.38
2023-05-19T05:29:06.746Z,8.65
2023-05-19T05:36:52.635Z,11.90
2023-05-19T05:41:10.249Z,7.78
2023-05-19T05:44:53.018Z,8.97
2023-05-19T05:49:03.277Z,9.27
2023-05-19T05:52:47.549Z,10.32
2023-05-19T06:00:34.784Z,9.73
2023-05-19T06:09:21.133Z,10.90
2023-05-19T06:13:03.131Z,7.27
2023-05-19T06:17:13.336Z,10.02
2023-05-19T06:20:56.150Z,9.68
2023-05-19T06:28:38.507Z,10.77
2023-05-19T06:36:32.494Z,10.30
2023-05-19T06:40:50.474Z,8.00
2023-05-19T07:02:27.832Z,9.98
2023-05-19T07:10:17.776Z,8.70
2023-05-19T07:19:13.942Z,9.00
2023-05-19T07:28:10.770Z,10.90
2023-05-19T07:41:54.317Z,9.05
2023-05-19T08:12:15.265Z,9.32
2023-05-19T08:24:32.508Z,10.82
2023-05-19T08:42:32.587Z,9.65
2023-05-19T08:56:05.570Z,11.18
2023-05-19T09:00:34.457Z,12.18
2023-05-19T09:09:34.977Z,9.75
2023-05-19T09:23:05.774Z,10.65
2023-05-19T09:32:16.913Z,11.85
2023-05-19T09:36:37.503Z,9.75
2023-05-19T09:45:12.175Z,10.65
2023-05-19T10:01:31.609Z,12.07
2023-05-19T10:05:52.194Z,12.73
2023-05-19T10:45:22.774Z,11.23
2023-05-19T10:54:18.951Z,10.00
2023-05-19T11:03:18.993Z,11.88
2023-05-19T11:12:20.268Z,10.02
2023-05-19T11:29:24.053Z,11.37
2023-05-19T11:47:15.863Z,13.50
2023-05-19T12:00:48.592Z,11.90
2023-05-19T12:14:16.376Z,11.77
2023-05-19T12:23:18.346Z,10.32
2023-05-19T12:32:19.458Z,9.73
2023-05-19T12:36:49.314Z,10.90
2023-05-19T12:41:19.871Z,11.98
2023-05-19T12:50:20.672Z,11.27
2023-05-19T12:59:30.937Z,10.73
2023-05-19T13:27:33.696Z,11.20
2023-05-19T13:32:01.622Z,13.20
2023-05-19T13:36:31.532Z,12.80
2023-05-19T13:41:03.352Z,13.23
2023-05-19T13:54:30.463Z,10.45
2023-05-19T14:27:11.034Z,16.17
2023-05-19T14:40:54.274Z,10.27
2023-05-19T15:18:06.530Z,12.52
2023-05-19T15:22:27.329Z,12.93
2023-05-19T15:57:27.450Z,9.70
2023-05-19T16:33:34.768Z,11.82
2023-05-19T16:38:05.428Z,9.82
2023-05-19T16:47:00.896Z,10.30
2023-05-19T17:02:48.099Z,16.13
2023-05-19T17:16:16.544Z,11.30
2023-05-19T17:25:20.735Z,10.57
2023-05-19T17:34:19.612Z,9.88
2023-05-19T17:38:50.544Z,9.90
2023-05-19T17:43:18.428Z,14.83
2023-05-19T17:47:49.483Z,14.13
2023-05-19T17:52:20.272Z,23.88
2023-05-19T18:05:54.640Z,18.98
2023-05-19T18:10:21.024Z,12.43
2023-05-19T18:14:51.403Z,12.20
2023-05-19T18:23:54.360Z,13.30
2023-05-19T18:40:47.460Z,13.87
2023-05-19T18:45:17.923Z,13.75
2023-05-19T18:54:16.777Z,12.07
2023-05-19T19:03:17.714Z,10.40
2023-05-19T19:45:03.138Z,7.70
2023-05-19T19:54:04.480Z,9.00
2023-05-19T20:07:21.011Z,8.38
2023-05-19T20:11:03.179Z,9.53
2023-05-19T20:14:46.420Z,8.60
2023-05-19T20:18:30.061Z,10.13
2023-05-19T20:22:12.369Z,9.57
2023-05-19T20:26:06.671Z,11.63
2023-05-19T20:29:53.813Z,9.60
2023-05-19T20:33:36.079Z,11.02
2023-05-19T20:37:18.123Z,10.63
2023-05-19T20:41:00.167Z,11.80
2023-05-19T20:44:42.447Z,8.98
2023-05-19T20:48:24.566Z,12.03
2023-05-19T20:52:07.153Z,9.77
2023-05-19T20:55:49.476Z,9.50
2023-05-19T20:59:31.676Z,10.15
2023-05-19T21:03:13.861Z,10.60
2023-05-19T21:06:56.182Z,9.43
2023-05-19T21:10:38.488Z,9.45
2023-05-19T21:14:23.398Z,10.27
2023-05-19T21:18:07.452Z,11.35
2023-05-19T21:21:50.139Z,10.10
2023-05-19T21:25:32.143Z,11.70
2023-05-19T21:29:14.127Z,11.40
2023-05-19T21:32:56.254Z,13.60
2023-05-19T21:36:38.429Z,13.68
2023-05-19T21:40:20.448Z,13.55
2023-05-19T21:44:02.630Z,13.60
2023-05-19T21:47:44.549Z,13.32
2023-05-19T21:51:29.304Z,12.33
2023-05-19T21:55:11.443Z,13.05
2023-05-19T21:58:53.669Z,11.82
2023-05-19T22:02:35.888Z,15.57
2023-05-19T22:06:17.922Z,11.98
2023-05-19T22:09:59.931Z,13.50
2023-05-19T22:13:42.248Z,12.63
2023-05-19T22:17:24.555Z,12.10
2023-05-19T22:21:06.681Z,12.90
2023-05-19T22:24:49.060Z,15.50
2023-05-19T22:28:31.066Z,17.17
2023-05-19T22:32:14.178Z,15.40
2023-05-19T22:35:56.194Z,15.65
2023-05-19T22:39:39.384Z,17.27
2023-05-19T22:43:21.335Z,14.45
2023-05-19T22:47:03.297Z,13.65
2023-05-19T22:50:45.357Z,15.80
2023-05-19T22:54:27.426Z,14.45
2023-05-19T22:58:09.463Z,15.23
2023-05-19T23:01:51.450Z,15.32
2023-05-19T23:05:33.875Z,14.50
2023-05-19T23:09:16.393Z,15.25
2023-05-19T23:12:58.401Z,14.88
2023-05-19T23:16:40.445Z,14.13
2023-05-19T23:20:22.471Z,15.45
2023-05-19T23:24:05.834Z,13.45
2023-05-19T23:27:47.955Z,14.40
2023-05-19T23:31:30.033Z,14.95
2023-05-19T23:35:13.483Z,16.58
2023-05-19T23:38:55.619Z,15.48
2023-05-19T23:42:37.794Z,21.07
2023-05-19T23:46:19.809Z,15.70
2023-05-19T23:50:01.936Z,14.27
2023-05-19T23:53:43.900Z,15.33
2023-05-19T23:57:25.836Z,17.60
